Atlantic City, NJ (08401)

8:27 PM EDT on September 04, 2015 (GMT -0400)
APRSWXNET | | Change Station
CLOSE
Current Station
Personal Weather Station
Location: Absecon, NJ
Elevation: 9 ft
Nearby Weather Stations

Elev 9 ft 39.40 °N, 74.47 °W | Updated 30 minutes ago

Overcast
Overcast
76 °F
Feels Like 76 °F
N
2
Wind Variable Wind from ENE
Gusts 16.0 mph

Today
High -- | Low -- °F
--% Chance of Precip.
Yesterday
High -- | Low -- °F
Precip. -- in
6:28 AM 7:24 PM
Waning Gibbous, 54% visible
Pressure 30.10 in
Visibility 9.0 miles
Clouds Few 2300 ft
Overcast 2900 ft
Heat Index 76 °F
Dew Point 73 °F
Humidity 89%
Rainfall in
Snow Depth Not available.
UV 0 out of 12
Pollen 9.50 out of 12
Air Quality Not available.
Flu Activity Not available.
METAR KACY 042354Z 07010KT 9SM FEW023 OVC029 24/20 A3010 RMK AO2 SLP193 T02390200 10306 20239 51012
Pressure 30.10 in
Visibility 9.0 miles
Clouds Few 2300 ft
Overcast 2900 ft
Heat Index 76 °F
Dew Point 73 °F
Humidity 89%
Rainfall in
Snow Depth Not available.
UV 0 out of 12
Pollen 9.50 out of 12
Air Quality Not available.
Flu Activity Not available.
METAR KACY 042354Z 07010KT 9SM FEW023 OVC029 24/20 A3010 RMK AO2 SLP193 T02390200 10306 20239 51012

10-Day Weather Forecast

×

Almanac

Astronomy

Sep. 04, 2015 Rise Set
Actual Time
Civil Twilight
Nautical Twilight
Astronomical Twilight
Moon
Length of Visible Light
Length of Day
Tomorrow will be .
, % of the Moon is Illuminated

Today's Extremes

State Highs State Lows

Community

WunderPhotos

Upload Photos

1,852,351 photos uploaded!

WunderBlogs® & News

Nearby

Air Quality

  Air Quality AQ Index Pollutant
Not available.

Snow Depth

Station Depth Elevation

Earthquake Activity

City Distance Mag. Time & Date
Minimum magnitude displayed is 2.5.

Coastal Water Temperatures

Place Temperature

Stations

Nearby Weather Stations

Station Location Temp. Windchill Dew Point Humidity Wind Precip. Elev Updated Type